Time;durP1;ratioP1;P1;durP2;ratioP2;P2;SDS_P1;SDS_P2;PMS_P1;PMS_P2;Temp;Humidity;BMP_temperature;BMP_pressure;BME280_temperature;BME280_humidity;BME280_pressure;Samples;Min_cycle;Max_cycle;Signal;HPM_P1;HPM_P2
2022/08/29 00:00:56;;;;;;;14.35;9.18;;;;;;;23.87;52.88;94653.75;4211248;28;20130;-63
2022/08/29 00:03:01;;;;;;;13.68;9.43;;;;;;;23.91;52.76;94657.56;4208494;28;20143;-62
2022/08/29 00:05:09;;;;;;;16.30;9.70;;;;;;;23.91;52.60;94652.22;4213003;28;20059;-63
2022/08/29 00:07:11;;;;;;;13.98;8.43;;;;;;;23.92;52.72;94653.84;4214739;28;20132;-61
2022/08/29 00:09:13;;;;;;;14.55;9.00;;;;;;;23.92;52.66;94657.34;4206771;28;20057;-60
2022/08/29 00:11:17;;;;;;;15.13;9.25;;;;;;;23.93;52.95;94658.13;4204628;28;20043;-60
2022/08/29 00:13:18;;;;;;;17.20;9.73;;;;;;;23.93;52.74;94655.47;4209099;28;20056;-64
2022/08/29 00:15:20;;;;;;;16.70;10.50;;;;;;;23.90;52.95;94651.41;4210164;28;20569;-60
2022/08/29 00:17:22;;;;;;;18.63;10.10;;;;;;;23.88;53.21;94653.53;4209893;28;20615;-60
2022/08/29 00:19:24;;;;;;;16.58;10.57;;;;;;;23.89;52.75;94649.78;4216671;28;20051;-61
2022/08/29 00:21:26;;;;;;;14.88;10.02;;;;;;;23.89;53.01;94651.66;4210758;28;20088;-62
2022/08/29 00:23:27;;;;;;;16.50;10.20;;;;;;;23.89;52.93;94654.31;4198515;28;20048;-63
2022/08/29 00:25:30;;;;;;;16.52;9.85;;;;;;;23.88;52.85;94650.84;4206655;28;20044;-64
2022/08/29 00:27:32;;;;;;;13.05;10.10;;;;;;;23.88;52.96;94658.06;4210010;28;20456;-62
2022/08/29 00:29:34;;;;;;;15.65;9.75;;;;;;;23.87;52.76;94656.44;4204801;28;20045;-63
2022/08/29 00:31:36;;;;;;;18.60;9.40;;;;;;;23.87;53.02;94643.06;4211978;28;20056;-62
2022/08/29 00:33:38;;;;;;;13.27;9.85;;;;;;;23.86;53.03;94649.47;4209131;28;20052;-63
2022/08/29 00:35:41;;;;;;;16.15;9.82;;;;;;;23.86;53.17;94654.81;4209709;28;20130;-63
2022/08/29 00:37:44;;;;;;;11.90;8.88;;;;;;;23.84;53.29;94643.56;4201646;28;20143;-62
2022/08/29 00:39:45;;;;;;;12.90;9.15;;;;;;;23.84;53.12;94643.56;4203530;28;20048;-64
2022/08/29 00:41:47;;;;;;;20.02;9.88;;;;;;;23.82;53.10;94643.78;4212333;28;20473;-64
2022/08/29 00:43:49;;;;;;;13.00;9.45;;;;;;;23.81;53.11;94652.88;4205873;28;20059;-63
2022/08/29 00:46:02;;;;;;;14.55;9.00;;;;;;;23.80;53.33;94651.25;4204188;28;20044;-63
2022/08/29 00:48:08;;;;;;;12.60;9.68;;;;;;;23.81;53.38;94652.06;4211601;28;20079;-64
2022/08/29 00:50:30;;;;;;;17.20;9.80;;;;;;;23.72;53.54;94651.63;4208959;28;20063;-64
2022/08/29 00:52:36;;;;;;;16.33;9.48;;;;;;;23.66;53.70;94648.06;4205537;28;20044;-64
2022/08/29 00:54:38;;;;;;;21.35;10.07;;;;;;;23.63;53.65;94645.03;4206575;28;20048;-62
2022/08/29 00:56:41;;;;;;;14.02;9.63;;;;;;;23.62;53.65;94640.75;4209670;28;20512;-62
2022/08/29 00:58:53;;;;;;;18.05;9.90;;;;;;;23.61;53.85;94639.13;4199078;28;20044;-62
2022/08/29 01:00:55;;;;;;;11.10;9.32;;;;;;;23.61;53.72;94641.81;4207848;28;20051;-62
2022/08/29 01:02:57;;;;;;;11.53;8.90;;;;;;;23.58;53.73;94648.44;4206366;28;20139;-62
2022/08/29 01:04:59;;;;;;;15.90;9.70;;;;;;;23.56;53.88;94645.22;4209817;28;20284;-63
2022/08/29 01:07:01;;;;;;;14.57;9.15;;;;;;;23.56;53.75;94639.84;4212241;28;20117;-63
2022/08/29 01:09:04;;;;;;;12.55;8.70;;;;;;;23.57;53.97;94636.13;4208196;28;20055;-63
2022/08/29 01:13:33;;;;;;;15.82;9.30;;;;;;;23.13;54.28;94641.22;4203099;28;20058;-62
2022/08/29 01:15:37;;;;;;;10.27;7.90;;;;;;;22.98;54.67;94640.91;4198409;28;20561;-62
2022/08/29 01:17:43;;;;;;;;;;;;;;;22.96;55.10;94643.00;4206470;28;20054;-63
2022/08/29 01:20:05;;;;;;;14.02;8.90;;;;;;;22.99;55.17;94637.19;4203553;28;19924;-62
2022/08/29 01:22:12;;;;;;;13.70;8.45;;;;;;;23.08;54.84;94641.94;4211838;28;20597;-63
2022/08/29 01:24:42;;;;;;;11.57;8.57;;;;;;;23.12;54.58;94639.59;4204157;28;20049;-63
2022/08/29 01:26:46;;;;;;;12.02;8.18;;;;;;;23.14;54.19;94639.34;4204223;28;20074;-63
2022/08/29 01:28:49;;;;;;;;;;;;;;;23.13;53.95;94633.22;4209761;28;20044;-63
2022/08/29 01:31:44;;;;;;;15.55;8.70;;;;;;;23.15;54.42;94632.97;4205883;28;20362;-63
2022/08/29 01:33:58;;;;;;;14.45;8.10;;;;;;;23.13;54.41;94646.56;4203257;28;20142;-61
2022/08/29 01:36:00;;;;;;;13.73;9.02;;;;;;;23.13;54.29;94643.91;4204472;28;20534;-59
2022/08/29 01:38:01;;;;;;;19.42;8.15;;;;;;;23.16;53.97;94643.41;4202516;28;20579;-60
2022/08/29 01:40:04;;;;;;;12.82;8.85;;;;;;;23.15;54.16;94631.13;4216277;28;20127;-62
2022/08/29 01:42:18;;;;;;;12.63;8.65;;;;;;;23.17;54.32;94634.34;4209249;28;20043;-62
2022/08/29 01:44:24;;;;;;;12.88;8.73;;;;;;;23.15;54.45;94641.81;4205572;28;20093;-61
2022/08/29 01:46:30;;;;;;;12.85;8.38;;;;;;;23.01;54.59;94648.47;4209698;28;20116;-60
2022/08/29 01:48:35;;;;;;;15.63;8.82;;;;;;;22.64;54.58;94638.09;4208827;28;20047;-61
2022/08/29 01:50:37;;;;;;;11.43;8.05;;;;;;;22.25;55.32;94648.47;4205547;28;20157;-62
2022/08/29 01:52:40;;;;;;;12.48;7.95;;;;;;;22.00;55.88;94640.66;4204682;28;20048;-61
2022/08/29 01:54:43;;;;;;;17.55;8.63;;;;;;;21.92;56.47;94641.84;4206761;28;20342;-61
2022/08/29 01:56:48;;;;;;;12.23;8.20;;;;;;;21.78;56.79;94646.56;4204815;28;20132;-62
2022/08/29 01:58:52;;;;;;;13.30;8.02;;;;;;;21.77;56.63;94641.44;4196376;28;20044;-61
2022/08/29 02:00:54;;;;;;;15.85;8.90;;;;;;;21.87;56.75;94655.03;4208920;28;20507;-60
2022/08/29 02:02:59;;;;;;;14.75;8.85;;;;;;;21.82;56.98;94652.25;4204159;28;20150;-63
2022/08/29 02:05:01;;;;;;;13.55;8.43;;;;;;;21.65;57.27;94657.44;4216156;28;20090;-60
2022/08/29 02:07:02;;;;;;;17.50;8.45;;;;;;;21.37;57.93;94661.50;4207917;28;20152;-61
2022/08/29 02:09:05;;;;;;;15.80;9.07;;;;;;;21.15;58.13;94665.72;4206163;28;20453;-63
2022/08/29 02:11:10;;;;;;;13.18;7.70;;;;;;;21.02;58.69;94658.72;4213947;28;20116;-63
2022/08/29 02:13:12;;;;;;;13.00;8.30;;;;;;;21.15;58.50;94661.19;4203335;28;20524;-63
2022/08/29 02:15:17;;;;;;;16.38;9.43;;;;;;;21.26;58.48;94671.09;4211337;28;20102;-64
2022/08/29 02:17:19;;;;;;;10.77;8.48;;;;;;;21.19;58.89;94658.91;4208288;28;20481;-62
2022/08/29 02:19:22;;;;;;;14.60;9.52;;;;;;;20.96;59.84;94659.59;4210692;28;20651;-63
2022/08/29 02:21:26;;;;;;;15.20;10.23;;;;;;;20.94;60.18;94659.03;4214028;28;20048;-61
2022/08/29 02:23:28;;;;;;;13.25;9.55;;;;;;;21.09;59.91;94666.63;4204060;28;20067;-63
2022/08/29 02:25:40;;;;;;;17.35;9.60;;;;;;;21.26;59.33;94660.44;4207099;28;20051;-64
2022/08/29 02:27:42;;;;;;;19.95;10.00;;;;;;;21.44;59.14;94662.25;4207454;28;20058;-64
2022/08/29 02:29:44;;;;;;;16.00;10.35;;;;;;;21.57;58.65;94660.44;4205429;28;20109;-64
2022/08/29 02:31:46;;;;;;;13.32;10.35;;;;;;;21.67;58.59;94660.69;4214743;28;20109;-62
2022/08/29 02:33:49;;;;;;;16.58;10.63;;;;;;;21.77;58.04;94644.13;4216764;28;20222;-63
2022/08/29 02:35:52;;;;;;;19.77;10.47;;;;;;;21.81;57.92;94650.63;4208206;28;20040;-63
2022/08/29 02:37:53;;;;;;;16.48;10.65;;;;;;;21.80;58.08;94652.47;4215221;28;20093;-63
2022/08/29 02:39:55;;;;;;;16.65;10.43;;;;;;;21.80;58.14;94660.47;4213011;28;20093;-63
2022/08/29 02:41:57;;;;;;;15.52;10.75;;;;;;;21.83;58.09;94651.19;4210220;28;20076;-62
2022/08/29 02:43:59;;;;;;;17.17;10.10;;;;;;;21.75;58.29;94656.88;4207531;28;20118;-63
2022/08/29 02:46:01;;;;;;;17.70;10.60;;;;;;;21.71;58.44;94669.06;4210692;28;20179;-63
2022/08/29 02:48:03;;;;;;;15.57;10.27;;;;;;;21.71;58.30;94661.06;4206647;28;20101;-65
2022/08/29 02:50:07;;;;;;;21.05;10.43;;;;;;;21.76;58.17;94661.97;4215767;28;20592;-64
2022/08/29 02:52:11;;;;;;;18.55;10.57;;;;;;;21.85;57.98;94657.13;4208139;28;20407;-65
2022/08/29 02:54:13;;;;;;;16.85;11.50;;;;;;;21.77;58.33;94665.44;4218000;28;20105;-63
2022/08/29 02:56:14;;;;;;;22.55;10.82;;;;;;;21.37;59.76;94663.34;4209989;28;20075;-64
2022/08/29 02:58:17;;;;;;;21.08;12.07;;;;;;;20.99;60.75;94675.13;4210543;28;20040;-62
2022/08/29 03:00:23;;;;;;;23.15;11.77;;;;;;;20.93;61.16;94676.03;4209855;28;20048;-63
2022/08/29 03:02:25;;;;;;;16.17;11.50;;;;;;;20.69;61.99;94673.22;4206129;28;20717;-62
2022/08/29 03:04:27;;;;;;;19.05;12.35;;;;;;;20.58;62.17;94680.09;4209254;28;20200;-64
2022/08/29 03:06:29;;;;;;;17.65;12.30;;;;;;;20.64;62.05;94684.53;4209772;28;20052;-61
2022/08/29 03:08:30;;;;;;;17.45;12.10;;;;;;;20.68;62.09;94684.91;4218974;28;20055;-63
2022/08/29 03:10:33;;;;;;;22.98;12.45;;;;;;;20.80;61.80;94680.50;4211485;28;20044;-63
2022/08/29 03:12:35;;;;;;;20.60;12.52;;;;;;;20.81;61.80;94690.09;4206889;28;20040;-64
2022/08/29 03:14:37;;;;;;;19.63;12.10;;;;;;;20.82;61.47;94694.38;4203154;28;20523;-65
2022/08/29 03:16:39;;;;;;;21.00;11.65;;;;;;;20.67;61.89;94691.25;4205939;28;20063;-65
2022/08/29 03:18:41;;;;;;;19.83;11.45;;;;;;;20.71;62.00;94689.78;4211692;28;20580;-62
2022/08/29 03:20:43;;;;;;;16.88;11.65;;;;;;;20.83;61.68;94690.69;4208000;28;20052;-62
2022/08/29 03:22:46;;;;;;;20.67;11.10;;;;;;;20.85;61.48;94691.28;4209570;28;20040;-63
2022/08/29 03:24:48;;;;;;;18.73;11.43;;;;;;;20.86;61.29;94695.56;4215212;28;20059;-62
2022/08/29 03:26:49;;;;;;;22.95;11.73;;;;;;;20.71;61.61;94691.66;4204059;28;20105;-62
2022/08/29 03:28:57;;;;;;;19.20;11.50;;;;;;;20.56;62.04;94689.31;4210877;28;20048;-63
2022/08/29 03:30:58;;;;;;;23.65;11.43;;;;;;;20.49;62.33;94688.59;4213276;28;20113;-62
2022/08/29 03:33:01;;;;;;;17.73;12.02;;;;;;;20.56;62.06;94690.13;4213316;28;20483;-62
2022/08/29 03:35:04;;;;;;;20.00;11.00;;;;;;;20.63;62.06;94690.09;4212508;28;20055;-64
2022/08/29 03:37:05;;;;;;;16.38;11.32;;;;;;;20.75;61.49;94696.28;4213241;28;20052;-63
2022/08/29 03:39:08;;;;;;;15.43;10.18;;;;;;;20.87;60.52;94693.72;4213997;28;20488;-62
2022/08/29 03:41:10;;;;;;;18.55;10.65;;;;;;;20.86;60.16;94692.91;4211039;28;20056;-62
2022/08/29 03:43:12;;;;;;;19.70;9.65;;;;;;;20.92;59.96;94695.72;4208917;28;20052;-62
2022/08/29 03:45:16;;;;;;;19.25;10.85;;;;;;;20.98;59.78;94700.16;4201654;28;20040;-60
2022/08/29 03:47:18;;;;;;;16.85;11.50;;;;;;;21.04;59.98;94701.91;4214432;28;20206;-61
2022/08/29 03:49:20;;;;;;;17.17;10.05;;;;;;;21.10;59.87;94694.88;4210305;28;20138;-60
2022/08/29 03:51:22;;;;;;;15.68;9.90;;;;;;;21.18;59.39;94700.69;4212644;28;20546;-63
2022/08/29 03:53:31;;;;;;;15.73;9.43;;;;;;;21.29;58.82;94696.44;4212560;28;20051;-61
2022/08/29 03:55:33;;;;;;;14.13;9.35;;;;;;;21.37;58.13;94693.47;4212355;28;20056;-60
2022/08/29 03:57:35;;;;;;;14.40;9.55;;;;;;;21.45;57.80;94698.53;4203630;28;20581;-62
2022/08/29 03:59:37;;;;;;;15.38;9.38;;;;;;;21.45;57.64;94695.84;4203322;28;20764;-60
2022/08/29 04:01:39;;;;;;;17.35;9.43;;;;;;;21.47;57.67;94703.63;4202036;28;20076;-62
2022/08/29 04:03:40;;;;;;;22.48;9.35;;;;;;;21.43;57.57;94697.13;4220200;28;20047;-64
2022/08/29 04:05:42;;;;;;;14.43;9.20;;;;;;;21.46;57.62;94704.66;4200052;28;20530;-62
2022/08/29 04:07:47;;;;;;;12.85;8.23;;;;;;;21.50;57.53;94703.16;4204475;28;20072;-62
2022/08/29 04:09:49;;;;;;;16.45;9.48;;;;;;;21.57;57.60;94701.22;4210818;28;20328;-62
2022/08/29 04:11:50;;;;;;;12.73;9.32;;;;;;;21.65;57.48;94702.75;4206342;28;20494;-64
2022/08/29 04:13:53;;;;;;;14.77;9.25;;;;;;;21.75;57.38;94702.22;4212655;28;20477;-64
2022/08/29 04:15:54;;;;;;;15.25;9.10;;;;;;;21.82;57.46;94710.91;4218139;28;20062;-63
2022/08/29 04:17:59;;;;;;;19.42;9.75;;;;;;;21.87;57.01;94708.38;4206865;28;20101;-64
2022/08/29 04:20:01;;;;;;;13.15;8.70;;;;;;;21.94;56.29;94714.44;4204196;28;20398;-62
2022/08/29 04:22:04;;;;;;;14.00;8.85;;;;;;;22.00;55.91;94710.00;4211035;28;20055;-61
2022/08/29 04:24:05;;;;;;;13.45;8.63;;;;;;;22.03;55.81;94721.03;4201906;28;20057;-64
2022/08/29 04:26:18;;;;;;;12.88;7.90;;;;;;;22.06;55.52;94717.91;4204273;28;20568;-61
2022/08/29 04:28:37;;;;;;;15.93;8.55;;;;;;;22.06;55.36;94715.25;4207090;28;20104;-61
2022/08/29 04:30:44;;;;;;;13.77;8.80;;;;;;;22.05;55.02;94718.97;4205731;28;20431;-62
2022/08/29 04:32:52;;;;;;;15.13;8.73;;;;;;;22.08;55.01;94715.81;4209334;28;20157;-60
2022/08/29 04:34:57;;;;;;;14.43;8.45;;;;;;;22.10;55.09;94718.28;4208946;28;20713;-64
2022/08/29 04:36:59;;;;;;;15.35;8.70;;;;;;;22.14;54.74;94723.97;4202984;28;20064;-62
2022/08/29 04:39:02;;;;;;;15.23;8.52;;;;;;;22.12;54.75;94720.72;4211873;28;20059;-62
2022/08/29 04:41:09;;;;;;;14.77;8.90;;;;;;;22.15;54.33;94726.38;4204828;28;20052;-62
2022/08/29 04:43:11;;;;;;;12.07;8.45;;;;;;;22.13;54.66;94722.31;4217956;27;20040;-59
2022/08/29 04:45:16;;;;;;;14.50;8.70;;;;;;;22.16;54.76;94725.34;4207852;28;20051;-61
2022/08/29 04:47:21;;;;;;;14.95;9.00;;;;;;;22.23;54.58;94727.94;4209925;28;20100;-61
2022/08/29 04:49:22;;;;;;;12.75;8.27;;;;;;;22.25;54.60;94732.00;4210630;28;20121;-60
2022/08/29 04:51:24;;;;;;;14.38;8.45;;;;;;;22.29;54.39;94732.34;4211061;28;20434;-62
2022/08/29 04:53:27;;;;;;;14.70;8.63;;;;;;;22.35;54.45;94735.94;4208450;28;20040;-60
2022/08/29 04:55:29;;;;;;;11.98;7.68;;;;;;;22.43;54.13;94738.28;4208728;28;20063;-62
2022/08/29 04:57:33;;;;;;;9.55;7.55;;;;;;;22.48;53.78;94738.41;4210616;28;20058;-61
2022/08/29 04:59:35;;;;;;;;;;;;;;;22.52;53.72;94733.41;4209496;28;20109;-60
2022/08/29 05:01:37;;;;;;;19.65;8.10;;;;;;;22.55;53.86;94746.28;4212914;28;19920;-62
2022/08/29 05:03:38;;;;;;;20.33;9.55;;;;;;;22.56;54.26;94743.38;4207238;28;20052;-62
2022/08/29 05:05:40;;;;;;;18.00;9.68;;;;;;;22.62;54.01;94749.66;4202666;28;20047;-62
2022/08/29 05:07:43;;;;;;;16.88;8.80;;;;;;;22.67;53.46;94752.41;4203318;28;20048;-62
2022/08/29 05:09:49;;;;;;;13.55;8.65;;;;;;;22.72;53.77;94755.22;4210881;28;20054;-62
2022/08/29 05:11:51;;;;;;;13.00;8.90;;;;;;;22.78;53.44;94756.13;4209333;28;20109;-61
2022/08/29 05:13:53;;;;;;;18.05;9.38;;;;;;;22.79;53.26;94758.56;4205751;28;20063;-61
2022/08/29 05:15:55;;;;;;;16.52;9.85;;;;;;;22.76;53.39;94766.22;4208266;28;20097;-61
2022/08/29 05:17:57;;;;;;;17.23;9.73;;;;;;;22.28;55.30;94765.41;4212081;28;20051;-64
2022/08/29 05:19:59;;;;;;;12.43;10.07;;;;;;;22.07;55.82;94762.22;4208365;28;20549;-62
2022/08/29 05:22:01;;;;;;;20.73;10.70;;;;;;;21.85;56.87;94761.13;4207905;28;20392;-63
2022/08/29 05:24:09;;;;;;;15.18;9.82;;;;;;;21.96;56.73;94763.03;4216127;28;20070;-62
2022/08/29 05:26:11;;;;;;;15.82;11.30;;;;;;;22.08;56.58;94757.69;4208807;28;20638;-62
2022/08/29 05:28:12;;;;;;;23.33;10.27;;;;;;;22.17;56.16;94766.19;4207561;28;20410;-62
2022/08/29 05:30:16;;;;;;;15.05;10.18;;;;;;;22.02;56.70;94770.09;4213362;28;20059;-61
2022/08/29 05:32:35;;;;;;;18.98;10.75;;;;;;;21.90;57.03;94771.94;4210122;28;20101;-62
2022/08/29 05:34:37;;;;;;;17.60;10.90;;;;;;;21.80;57.47;94774.31;4219760;28;20055;-61
2022/08/29 05:36:39;;;;;;;16.40;10.43;;;;;;;21.78;57.72;94761.22;4211280;28;20064;-64
2022/08/29 05:38:41;;;;;;;13.32;9.75;;;;;;;21.60;57.65;94777.28;4212709;28;20407;-62
2022/08/29 05:40:42;;;;;;;19.60;10.40;;;;;;;21.63;57.61;94774.16;4205031;28;20098;-61
2022/08/29 05:42:44;;;;;;;15.73;9.85;;;;;;;21.76;57.49;94776.63;4208050;28;20083;-63
2022/08/29 05:44:46;;;;;;;19.33;10.00;;;;;;;21.97;56.83;94772.63;4205990;28;20598;-59
2022/08/29 05:46:48;;;;;;;15.55;10.32;;;;;;;22.22;56.33;94776.97;4211050;28;20119;-63
2022/08/29 05:48:50;;;;;;;18.67;10.00;;;;;;;22.36;56.33;94775.75;4210081;28;20331;-64
2022/08/29 05:50:51;;;;;;;16.02;10.45;;;;;;;22.34;56.13;94777.03;4209627;28;20043;-66
2022/08/29 05:52:53;;;;;;;16.42;11.27;;;;;;;22.26;56.50;94775.50;4208347;28;20069;-65
2022/08/29 05:54:55;;;;;;;21.00;12.23;;;;;;;22.13;57.20;94783.69;4213947;28;20052;-61
2022/08/29 05:56:56;;;;;;;21.45;11.82;;;;;;;22.11;57.52;94789.25;4203600;28;20052;-62
2022/08/29 05:58:58;;;;;;;19.25;12.00;;;;;;;22.07;57.54;94783.56;4206160;28;20650;-62
2022/08/29 06:01:00;;;;;;;22.23;11.30;;;;;;;22.07;58.12;94788.09;4206262;28;20078;-64
2022/08/29 06:03:03;;;;;;;26.05;13.68;;;;;;;22.18;57.88;94786.50;4206855;28;20044;-63
2022/08/29 06:05:05;;;;;;;23.17;13.02;;;;;;;21.99;58.02;94789.22;4209115;28;20052;-67
2022/08/29 06:07:09;;;;;;;22.85;13.50;;;;;;;22.05;58.22;94785.66;4210486;28;20097;-65
2022/08/29 06:09:12;;;;;;;17.80;12.60;;;;;;;22.17;58.32;94787.53;4209700;28;20056;-63
2022/08/29 06:11:19;;;;;;;19.30;11.57;;;;;;;22.38;57.37;94791.53;4216011;28;20048;-63
2022/08/29 06:13:21;;;;;;;18.70;12.80;;;;;;;22.39;57.47;94790.47;4206806;28;20049;-61
2022/08/29 06:15:24;;;;;;;18.58;12.77;;;;;;;22.21;57.98;94788.69;4206498;28;20040;-61
2022/08/29 06:17:26;;;;;;;22.55;12.68;;;;;;;22.36;57.89;94789.09;4214010;28;20342;-61
2022/08/29 06:19:33;;;;;;;19.63;13.05;;;;;;;22.59;56.75;94790.97;4213827;28;20048;-63
2022/08/29 06:21:35;;;;;;;20.15;11.73;;;;;;;22.75;56.19;94792.13;4208331;28;20051;-62
2022/08/29 06:23:38;;;;;;;18.73;11.70;;;;;;;22.72;56.46;94787.28;4205800;28;20048;-61
2022/08/29 06:25:40;;;;;;;24.10;12.85;;;;;;;22.62;56.44;94789.69;4210040;28;20101;-61
2022/08/29 06:27:42;;;;;;;18.58;12.25;;;;;;;22.48;56.77;94784.59;4214553;28;20043;-61
2022/08/29 06:29:43;;;;;;;22.77;13.02;;;;;;;22.50;56.95;94779.03;4213422;28;20052;-61
2022/08/29 06:31:45;;;;;;;23.08;12.98;;;;;;;22.66;56.41;94780.19;4207379;28;20048;-61
2022/08/29 06:33:49;;;;;;;25.67;13.20;;;;;;;22.70;56.65;94784.81;4215703;28;20051;-64
2022/08/29 06:35:51;;;;;;;18.15;12.63;;;;;;;22.57;56.15;94789.59;4214676;28;20082;-59
2022/08/29 06:37:53;;;;;;;19.88;12.85;;;;;;;22.76;56.63;94788.44;4209821;28;20040;-62
2022/08/29 06:39:55;;;;;;;17.08;11.68;;;;;;;22.88;55.87;94788.41;4207409;28;20106;-62
2022/08/29 06:41:56;;;;;;;19.50;12.07;;;;;;;23.12;55.09;94791.91;4209305;28;20127;-61
2022/08/29 06:43:58;;;;;;;17.67;11.13;;;;;;;23.31;54.53;94781.88;4211492;28;20064;-61
2022/08/29 06:46:00;;;;;;;17.92;10.80;;;;;;;23.47;53.85;94786.47;4204418;28;20059;-60
2022/08/29 06:48:02;;;;;;;20.85;11.10;;;;;;;23.57;53.78;94796.56;4211059;28;20055;-62
2022/08/29 06:50:05;;;;;;;19.13;10.55;;;;;;;23.76;53.52;94797.22;4209488;28;20060;-61
2022/08/29 06:52:07;;;;;;;19.75;9.98;;;;;;;23.94;52.19;94796.22;4208317;28;20705;-63
2022/08/29 06:54:10;;;;;;;18.98;9.55;;;;;;;24.17;51.88;94802.50;4210958;28;20606;-62
2022/08/29 06:56:13;;;;;;;16.30;9.32;;;;;;;24.33;51.20;94791.00;4219025;28;20106;-63
2022/08/29 06:58:15;;;;;;;17.52;9.20;;;;;;;23.70;52.25;94798.13;4208902;28;20067;-63
2022/08/29 07:00:17;;;;;;;15.80;8.63;;;;;;;23.50;52.76;94795.88;4207807;28;20052;-61
2022/08/29 07:02:23;;;;;;;15.38;9.35;;;;;;;23.66;52.78;94795.16;4213977;28;20055;-62
2022/08/29 07:04:25;;;;;;;17.85;9.55;;;;;;;23.94;52.08;94798.06;4214015;28;20522;-60
2022/08/29 07:06:28;;;;;;;17.63;8.57;;;;;;;24.18;50.47;94796.06;4210887;28;20636;-62
2022/08/29 07:08:29;;;;;;;20.48;8.95;;;;;;;24.43;49.92;94801.84;4213178;28;20055;-60
2022/08/29 07:10:31;;;;;;;22.05;9.48;;;;;;;24.52;50.04;94802.28;4205690;28;20500;-63
2022/08/29 07:12:33;;;;;;;18.38;9.60;;;;;;;24.58;50.08;94795.16;4208557;28;20052;-63
2022/08/29 07:14:35;;;;;;;17.58;9.43;;;;;;;24.62;49.52;94805.13;4213900;28;20059;-62
2022/08/29 07:16:37;;;;;;;19.42;11.05;;;;;;;24.86;49.20;94808.44;4204922;28;20601;-62
2022/08/29 07:18:39;;;;;;;25.98;12.90;;;;;;;24.73;49.52;94803.44;4209160;28;20047;-62
2022/08/29 07:20:41;;;;;;;22.75;9.80;;;;;;;24.57;50.37;94809.63;4208796;28;20116;-62
2022/08/29 07:22:49;;;;;;;22.58;9.82;;;;;;;24.61;50.45;94805.38;4209561;28;20055;-62
2022/08/29 07:24:53;;;;;;;23.08;9.88;;;;;;;24.62;50.23;94807.00;4204398;28;20058;-63
2022/08/29 07:26:55;;;;;;;17.95;10.02;;;;;;;24.70;50.39;94809.28;4204016;28;20044;-64
2022/08/29 07:29:00;;;;;;;16.38;10.00;;;;;;;24.79;50.12;94818.53;4206818;28;20131;-62
2022/08/29 07:31:04;;;;;;;15.98;9.02;;;;;;;24.82;49.86;94814.53;4209480;28;20069;-63
2022/08/29 07:33:06;;;;;;;17.38;9.00;;;;;;;24.96;49.74;94809.66;4202937;28;20052;-63
2022/08/29 07:35:08;;;;;;;13.75;8.52;;;;;;;25.07;49.54;94814.91;4212146;28;20092;-65
2022/08/29 07:37:14;;;;;;;15.88;8.45;;;;;;;25.13;49.31;94813.94;4214199;28;20630;-64
2022/08/29 07:39:17;;;;;;;12.68;8.57;;;;;;;25.26;49.18;94818.16;4225282;27;20049;-61
2022/08/29 07:41:19;;;;;;;19.75;9.27;;;;;;;25.44;49.28;94818.91;4206518;28;20052;-62
2022/08/29 07:43:21;;;;;;;23.52;9.98;;;;;;;25.41;49.12;94816.75;4206263;28;20056;-61
2022/08/29 07:45:28;;;;;;;14.02;9.20;;;;;;;25.49;48.97;94819.81;4205238;28;20518;-62
2022/08/29 07:47:31;;;;;;;15.82;8.35;;;;;;;25.53;49.09;94820.09;4208913;28;20117;-60
2022/08/29 07:49:33;;;;;;;16.48;8.23;;;;;;;25.59;48.71;94815.59;4210144;28;21429;-65
2022/08/29 07:51:42;;;;;;;24.27;8.77;;;;;;;25.80;48.76;94816.66;4205412;28;20441;-63
2022/08/29 07:53:45;;;;;;;21.58;9.38;;;;;;;25.87;48.38;94811.91;4210496;28;20089;-63
2022/08/29 07:55:47;;;;;;;16.55;8.50;;;;;;;25.75;48.81;94809.38;4215806;28;20871;-63
2022/08/29 07:57:52;;;;;;;19.90;9.60;;;;;;;25.79;48.99;94807.81;4207775;28;20074;-62
2022/08/29 07:59:53;;;;;;;17.58;8.40;;;;;;;25.77;48.99;94812.63;4206974;28;20047;-66
2022/08/29 08:01:55;;;;;;;23.77;9.52;;;;;;;25.89;48.98;94805.25;4210441;28;20998;-64
2022/08/29 08:03:57;;;;;;;14.32;8.30;;;;;;;26.07;48.61;94798.75;4206468;28;20738;-64
2022/08/29 08:05:59;;;;;;;14.07;7.50;;;;;;;26.26;48.64;94814.47;4211869;28;20052;-63
2022/08/29 08:08:08;;;;;;;17.33;8.02;;;;;;;26.31;47.68;94809.16;4201432;28;20143;-63
2022/08/29 08:10:18;;;;;;;18.58;8.18;;;;;;;26.47;47.96;94802.84;4219359;28;20483;-63
2022/08/29 08:12:19;;;;;;;17.50;7.80;;;;;;;26.71;47.59;94806.00;4201660;28;20053;-68
2022/08/29 08:14:21;;;;;;;15.35;7.60;;;;;;;26.88;46.94;94800.47;4206185;28;20056;-61
2022/08/29 08:16:35;;;;;;;11.73;8.10;;;;;;;26.84;46.65;94796.69;4205003;28;20134;-64
2022/08/29 08:18:37;;;;;;;18.13;7.68;;;;;;;26.82;46.83;94798.81;4207860;28;20048;-63
2022/08/29 08:20:39;;;;;;;30.53;13.93;;;;;;;26.25;48.40;94799.44;4212855;28;20055;-65
2022/08/29 08:22:41;;;;;;;16.60;10.38;;;;;;;26.26;48.55;94798.34;4212437;28;20055;-64
2022/08/29 08:24:43;;;;;;;14.77;8.10;;;;;;;26.42;48.13;94797.44;4203160;28;20059;-61
2022/08/29 08:26:46;;;;;;;13.60;8.00;;;;;;;26.62;47.66;94793.31;4212056;28;20044;-63
2022/08/29 08:28:48;;;;;;;15.32;9.20;;;;;;;26.59;47.33;94797.34;4204627;28;20060;-63
2022/08/29 08:30:50;;;;;;;16.10;9.15;;;;;;;26.38;47.99;94790.16;4204997;28;20419;-64
2022/08/29 08:32:52;;;;;;;21.30;11.05;;;;;;;26.05;48.49;94797.34;4207322;28;20476;-63
2022/08/29 08:34:55;;;;;;;14.18;8.07;;;;;;;25.94;48.56;94796.44;4205266;28;20056;-63
2022/08/29 08:36:57;;;;;;;10.10;7.93;;;;;;;26.03;48.37;94789.56;4207728;28;20117;-66
2022/08/29 08:38:59;;;;;;;15.45;8.05;;;;;;;26.11;48.47;94802.53;4215057;28;20561;-63
2022/08/29 08:41:12;;;;;;;15.65;8.23;;;;;;;26.18;48.44;94799.66;4200040;28;20083;-64
2022/08/29 08:43:17;;;;;;;16.25;8.80;;;;;;;26.07;48.36;94801.41;4203551;28;20493;-65
2022/08/29 08:45:36;;;;;;;14.60;7.90;;;;;;;26.12;48.48;94801.47;4210983;28;20098;-62
2022/08/29 08:48:02;;;;;;;17.73;7.68;;;;;;;26.07;48.98;94800.59;4203989;28;20044;-61
2022/08/29 08:50:12;;;;;;;12.88;8.30;;;;;;;25.94;48.88;94799.94;4208176;28;20474;-61
2022/08/29 08:52:20;;;;;;;11.95;8.32;;;;;;;25.90;49.01;94798.84;4223566;27;20055;-64
2022/08/29 08:54:25;;;;;;;11.65;8.15;;;;;;;25.85;49.40;94797.91;4212234;28;20044;-62
2022/08/29 08:56:34;;;;;;;13.57;8.00;;;;;;;25.85;49.17;94796.03;4208281;28;20528;-65
2022/08/29 08:58:53;;;;;;;11.65;7.80;;;;;;;25.76;49.20;94789.50;4205194;28;20101;-63
2022/08/29 09:00:59;;;;;;;15.23;8.05;;;;;;;25.66;48.98;94790.22;4212382;28;20124;-64
2022/08/29 09:03:47;;;;;;;17.77;8.48;;;;;;;25.70;49.56;94790.50;4204267;28;20132;-62
2022/08/29 09:06:16;;;;;;;16.52;8.38;;;;;;;25.75;49.01;94788.72;4188125;28;20056;-67
2022/08/29 09:08:41;;;;;;;12.40;7.70;;;;;;;25.79;49.21;94790.88;4206181;28;20044;-64
2022/08/29 09:11:02;;;;;;;17.67;8.43;;;;;;;25.72;49.43;94791.88;4208122;28;20627;-63
2022/08/29 09:13:17;;;;;;;13.75;8.15;;;;;;;25.56;50.17;94786.63;4209673;28;20087;-64
2022/08/29 09:15:23;;;;;;;11.23;8.02;;;;;;;25.56;50.18;94784.75;4202442;28;20102;-64
2022/08/29 09:17:31;;;;;;;18.40;8.50;;;;;;;25.57;49.94;94785.53;4206649;28;20059;-65
2022/08/29 09:19:37;;;;;;;12.80;8.88;;;;;;;25.63;49.92;94789.91;4203698;28;20051;-66
2022/08/29 09:22:04;;;;;;;19.67;8.85;;;;;;;25.67;50.25;94791.84;4207451;28;20051;-65
2022/08/29 09:24:11;;;;;;;15.45;9.00;;;;;;;25.69;50.24;94783.53;4224531;27;20116;-65
2022/08/29 09:26:18;;;;;;;14.57;8.93;;;;;;;25.67;50.43;94783.78;4225951;28;20051;-66
2022/08/29 09:28:20;;;;;;;11.80;7.90;;;;;;;25.66;51.00;94779.50;4208315;28;20123;-69
2022/08/29 09:30:24;;;;;;;14.70;8.70;;;;;;;25.70;51.05;94775.22;4204016;28;20105;-67
2022/08/29 09:32:26;;;;;;;18.63;9.05;;;;;;;25.77;52.13;94779.59;4205088;28;20040;-68
2022/08/29 09:34:34;;;;;;;15.02;9.23;;;;;;;25.84;52.60;94780.22;4205867;28;20051;-64
2022/08/29 09:36:56;;;;;;;12.73;9.02;;;;;;;25.87;52.36;94774.31;4211775;28;20051;-65
2022/08/29 09:39:22;;;;;;;16.65;10.15;;;;;;;25.88;51.85;94768.75;4201468;28;20105;-65
2022/08/29 09:41:27;;;;;;;17.08;9.93;;;;;;;25.87;52.34;94768.97;4206761;28;20043;-65